createdAt,value
2019-04-19T00:01:49.216Z,12.77
2019-04-19T00:04:16.454Z,12.91
2019-04-19T00:06:45.984Z,12.94
2019-04-19T00:09:28.398Z,12.81
2019-04-19T00:11:52.331Z,12.70
2019-04-19T00:14:13.321Z,12.66
2019-04-19T00:16:42.699Z,12.60
2019-04-19T00:19:30.592Z,12.53
2019-04-19T00:22:03.547Z,12.53
2019-04-19T00:24:12.129Z,12.39
2019-04-19T00:26:40.628Z,12.39
2019-04-19T00:29:20.151Z,12.38
2019-04-19T00:31:47.928Z,12.40
2019-04-19T00:34:10.414Z,12.31
2019-04-19T00:36:38.856Z,12.31
2019-04-19T00:39:24.036Z,12.30
2019-04-19T00:42:01.554Z,12.21
2019-04-19T00:44:34.255Z,12.15
2019-04-19T00:47:02.824Z,12.06
2019-04-19T00:49:24.065Z,12.10
2019-04-19T00:52:01.166Z,11.97
2019-04-19T00:54:22.965Z,12.02
2019-04-19T00:56:53.152Z,12.01
2019-04-19T00:59:17.490Z,12.07
2019-04-19T01:01:46.887Z,11.95
2019-04-19T01:04:20.615Z,11.90
2019-04-19T01:06:50.885Z,11.95
2019-04-19T01:09:29.931Z,11.90
2019-04-19T01:12:00.334Z,11.85
2019-04-19T01:14:27.529Z,11.78
2019-04-19T01:17:02.590Z,11.81
2019-04-19T01:19:18.204Z,11.73
2019-04-19T01:21:46.989Z,11.69
2019-04-19T01:24:17.951Z,11.72
2019-04-19T01:26:49.476Z,11.65
2019-04-19T01:29:19.405Z,11.62
2019-04-19T01:31:49.542Z,11.57
2019-04-19T01:34:20.896Z,11.52
2019-04-19T01:36:48.468Z,11.52
2019-04-19T01:39:28.866Z,11.52
2019-04-19T01:41:58.073Z,11.35
2019-04-19T01:44:43.557Z,11.34
2019-04-19T01:47:25.908Z,11.20
2019-04-19T01:49:49.207Z,11.20
2019-04-19T01:52:35.106Z,11.23
2019-04-19T01:54:49.031Z,11.18
2019-04-19T01:57:08.022Z,11.13
2019-04-19T01:59:40.665Z,11.13
2019-04-19T02:02:11.689Z,11.11
2019-04-19T02:04:37.688Z,11.19
2019-04-19T02:07:12.565Z,11.20
2019-04-19T02:09:51.754Z,11.17
2019-04-19T02:12:22.522Z,11.07
2019-04-19T02:14:46.335Z,11.08
2019-04-19T02:17:10.311Z,11.11
2019-04-19T02:19:38.533Z,10.98
2019-04-19T02:22:15.214Z,10.85
2019-04-19T02:24:44.161Z,10.86
2019-04-19T02:27:10.047Z,10.87
2019-04-19T02:29:38.424Z,10.94
2019-04-19T02:32:29.886Z,10.90
2019-04-19T02:37:34.546Z,10.82
2019-04-19T02:45:04.596Z,10.86
2019-04-19T02:50:01.978Z,10.83
2019-04-19T02:55:12.487Z,10.81
2019-04-19T03:00:33.791Z,10.70
2019-04-19T03:05:22.432Z,10.64
2019-04-19T03:07:28.142Z,10.60
2019-04-19T03:09:57.953Z,10.42
2019-04-19T03:12:41.493Z,10.45
2019-04-19T03:17:44.559Z,10.36
2019-04-19T03:20:10.889Z,10.35
2019-04-19T03:22:43.566Z,10.35
2019-04-19T03:25:15.218Z,10.27
2019-04-19T03:27:40.880Z,10.32
2019-04-19T03:30:16.814Z,10.33
2019-04-19T03:33:07.169Z,10.25
2019-04-19T03:35:11.395Z,10.24
2019-04-19T03:37:53.045Z,10.24
2019-04-19T03:42:54.211Z,10.25
2019-04-19T03:45:28.976Z,10.25
2019-04-19T03:48:07.726Z,10.35
2019-04-19T03:51:08.952Z,10.27
2019-04-19T03:54:00.633Z,10.19
2019-04-19T03:56:34.532Z,10.27
2019-04-19T03:58:42.061Z,10.19
2019-04-19T04:01:37.807Z,10.10
2019-04-19T04:04:24.086Z,10.05
2019-04-19T04:07:15.467Z,9.98
2019-04-19T04:13:09.274Z,10.01
2019-04-19T04:16:11.535Z,10.03
2019-04-19T04:18:51.713Z,10.03
2019-04-19T04:21:27.174Z,9.96
2019-04-19T04:24:19.009Z,9.82
2019-04-19T04:26:53.089Z,9.91
2019-04-19T04:29:19.260Z,9.97
2019-04-19T04:31:53.353Z,9.89
2019-04-19T04:34:25.652Z,9.97
2019-04-19T04:37:17.020Z,9.96
2019-04-19T04:39:49.402Z,9.97
2019-04-19T04:42:47.411Z,10.01
2019-04-19T04:46:16.892Z,9.89
2019-04-19T04:48:53.060Z,9.99
2019-04-19T04:54:16.556Z,9.88
2019-04-19T04:59:37.677Z,10.03
2019-04-19T05:02:42.692Z,10.14
2019-04-19T05:05:13.127Z,10.28
2019-04-19T05:08:06.622Z,10.49
2019-04-19T05:10:49.347Z,11.04
2019-04-19T05:13:39.659Z,11.99
2019-04-19T05:19:17.763Z,13.55
2019-04-19T05:22:05.851Z,13.85
2019-04-19T05:25:05.486Z,14.28
2019-04-19T05:27:52.293Z,14.70
2019-04-19T05:29:59.891Z,14.96
2019-04-19T05:32:57.976Z,15.74
2019-04-19T05:35:53.261Z,15.98
2019-04-19T05:44:23.383Z,16.40
2019-04-19T05:52:24.198Z,17.07
2019-04-19T05:54:36.864Z,16.69
2019-04-19T05:57:59.305Z,17.09
2019-04-19T06:00:51.674Z,17.43
2019-04-19T06:03:14.599Z,17.93
2019-04-19T06:06:26.302Z,18.51
2019-04-19T06:08:29.425Z,19.50
2019-04-19T06:10:58.466Z,19.85
2019-04-19T06:13:25.542Z,20.04
2019-04-19T06:16:18.103Z,19.77
2019-04-19T06:18:55.880Z,19.88
2019-04-19T06:21:32.788Z,20.14
2019-04-19T06:24:05.789Z,20.49
2019-04-19T06:31:58.134Z,20.06
2019-04-19T06:36:58.634Z,20.39
2019-04-19T06:39:20.499Z,20.05
2019-04-19T06:41:55.744Z,20.41
2019-04-19T06:44:43.730Z,20.85
2019-04-19T06:47:04.038Z,20.94
2019-04-19T06:49:40.667Z,21.63
2019-04-19T06:52:18.005Z,21.95
2019-04-19T06:55:03.594Z,22.40
2019-04-19T06:58:00.410Z,23.12
2019-04-19T07:01:13.603Z,23.49
2019-04-19T07:03:47.834Z,23.87
2019-04-19T07:06:35.051Z,24.07
2019-04-19T07:12:16.657Z,25.72
2019-04-19T07:14:58.861Z,25.33
2019-04-19T07:17:31.887Z,26.07
2019-04-19T07:22:53.701Z,26.67
2019-04-19T07:26:10.019Z,26.98
2019-04-19T07:28:38.426Z,27.37
2019-04-19T07:31:46.875Z,28.13
2019-04-19T07:34:34.820Z,28.40
2019-04-19T07:37:03.730Z,28.33
2019-04-19T07:39:37.790Z,28.66
2019-04-19T07:42:40.742Z,27.99
2019-04-19T07:47:54.823Z,27.96
2019-04-19T07:51:02.203Z,27.48
2019-04-19T07:56:21.992Z,26.62
2019-04-19T07:59:27.915Z,26.95
2019-04-19T08:09:49.739Z,27.51
2019-04-19T08:12:23.008Z,27.37
2019-04-19T08:15:06.504Z,26.83
2019-04-19T08:30:00.131Z,26.08
2019-04-19T08:32:24.443Z,26.12
2019-04-19T08:35:15.178Z,25.87
2019-04-19T08:38:06.964Z,24.96
2019-04-19T08:40:50.313Z,25.15
2019-04-19T08:43:41.658Z,25.43
2019-04-19T08:46:11.225Z,25.57
2019-04-19T08:49:02.426Z,25.39
2019-04-19T08:54:57.795Z,25.49
2019-04-19T08:57:01.494Z,25.64
2019-04-19T09:00:04.923Z,25.33
2019-04-19T09:02:45.252Z,24.93
2019-04-19T09:08:35.843Z,24.10
2019-04-19T09:11:04.039Z,24.10
2019-04-19T09:13:52.225Z,24.06
2019-04-19T09:16:38.139Z,24.13
2019-04-19T09:19:45.765Z,24.14
2019-04-19T09:22:19.418Z,23.82
2019-04-19T09:24:57.116Z,23.73
2019-04-19T09:27:58.572Z,23.65
2019-04-19T09:31:06.059Z,23.67
2019-04-19T09:33:40.863Z,23.65
2019-04-19T09:36:11.202Z,23.90
2019-04-19T09:38:59.782Z,23.47
2019-04-19T09:41:21.611Z,23.70
2019-04-19T09:43:52.137Z,23.66
2019-04-19T09:46:27.597Z,23.61
2019-04-19T09:49:36.768Z,23.68
2019-04-19T09:52:31.560Z,23.48
2019-04-19T09:54:58.900Z,23.40
2019-04-19T10:00:11.982Z,23.43
2019-04-19T10:02:56.537Z,23.20
2019-04-19T10:05:23.944Z,23.25
2019-04-19T10:08:11.620Z,23.21
2019-04-19T10:10:41.110Z,23.41
2019-04-19T10:18:23.404Z,23.62
2019-04-19T10:21:33.656Z,23.73
2019-04-19T10:24:05.420Z,23.77
2019-04-19T10:26:50.464Z,23.96
2019-04-19T10:32:13.168Z,23.94
2019-04-19T10:34:42.751Z,23.45
2019-04-19T10:37:31.558Z,23.50
2019-04-19T10:44:00.210Z,23.56
2019-04-19T10:49:52.914Z,23.92
2019-04-19T10:52:35.886Z,23.97
2019-04-19T10:55:44.453Z,23.82
2019-04-19T11:03:46.948Z,24.01
2019-04-19T11:09:45.831Z,24.16
2019-04-19T11:17:59.353Z,24.86
2019-04-19T11:20:38.081Z,24.79
2019-04-19T11:23:19.714Z,24.82
2019-04-19T11:31:49.907Z,25.01
2019-04-19T11:36:53.826Z,24.88
2019-04-19T11:39:23.154Z,25.18
2019-04-19T11:41:52.347Z,25.25
2019-04-19T11:44:39.874Z,24.88
2019-04-19T11:47:27.521Z,24.79
2019-04-19T11:55:46.615Z,25.81
2019-04-19T12:01:43.929Z,25.57
2019-04-19T12:04:12.353Z,25.35
2019-04-19T12:06:40.756Z,25.04
2019-04-19T12:09:50.211Z,25.18
2019-04-19T12:12:39.118Z,25.15
2019-04-19T12:15:49.221Z,25.08
2019-04-19T12:18:18.473Z,25.32
2019-04-19T12:20:55.421Z,25.32
2019-04-19T12:23:25.702Z,25.40
2019-04-19T12:28:29.974Z,25.94
2019-04-19T12:31:19.110Z,25.29
2019-04-19T12:34:09.570Z,25.28
2019-04-19T12:39:25.227Z,25.11
2019-04-19T12:41:53.588Z,25.33
2019-04-19T12:44:22.815Z,25.56
2019-04-19T12:47:11.336Z,25.44
2019-04-19T12:49:52.098Z,25.17
2019-04-19T12:52:31.155Z,24.86
2019-04-19T12:55:18.373Z,24.93
2019-04-19T12:58:06.105Z,25.22
2019-04-19T13:01:14.410Z,25.54
2019-04-19T13:07:11.007Z,25.46
2019-04-19T13:09:41.190Z,25.15
2019-04-19T13:12:10.834Z,25.02
2019-04-19T13:14:41.673Z,24.88
2019-04-19T13:17:30.519Z,25.00
2019-04-19T13:20:08.606Z,24.98
2019-04-19T13:22:50.517Z,24.83
2019-04-19T13:25:59.615Z,25.01
2019-04-19T13:31:34.817Z,25.52
2019-04-19T13:34:23.256Z,25.29
2019-04-19T13:40:26.219Z,25.13
2019-04-19T13:43:15.113Z,25.30
2019-04-19T13:48:37.117Z,25.54
2019-04-19T13:54:00.580Z,25.22
2019-04-19T13:56:30.894Z,25.54
2019-04-19T13:59:01.461Z,25.53
2019-04-19T14:01:50.293Z,25.57
2019-04-19T14:07:07.561Z,25.20
2019-04-19T14:09:55.209Z,25.23
2019-04-19T14:14:57.558Z,25.28
2019-04-19T14:20:00.685Z,25.43
2019-04-19T14:22:49.770Z,25.29
2019-04-19T14:25:59.306Z,25.09
2019-04-19T14:28:49.938Z,25.07
2019-04-19T14:31:37.775Z,25.11
2019-04-19T14:34:06.816Z,25.16
2019-04-19T14:36:36.318Z,25.16
2019-04-19T14:39:44.935Z,25.12
2019-04-19T14:42:14.748Z,25.16
2019-04-19T14:44:43.259Z,25.17
2019-04-19T14:47:32.846Z,25.21
2019-04-19T14:50:23.165Z,25.00
2019-04-19T14:53:12.313Z,24.90
2019-04-19T14:55:41.705Z,24.81
2019-04-19T15:03:39.346Z,25.25
2019-04-19T15:08:47.643Z,25.15
2019-04-19T15:11:17.973Z,25.21
2019-04-19T15:13:47.229Z,25.35
2019-04-19T15:18:51.675Z,25.51
2019-04-19T15:21:40.591Z,25.31
2019-04-19T15:24:10.742Z,25.24
2019-04-19T15:26:40.753Z,25.00
2019-04-19T15:29:11.211Z,24.70
2019-04-19T15:32:00.046Z,24.71
2019-04-19T15:34:29.615Z,24.77
2019-04-19T15:39:53.913Z,24.75
2019-04-19T15:42:24.745Z,24.85
2019-04-19T15:45:14.209Z,24.93
2019-04-19T15:47:44.497Z,24.61
2019-04-19T15:51:07.398Z,24.43
2019-04-19T15:53:24.353Z,24.45
2019-04-19T15:56:14.224Z,24.41
2019-04-19T15:59:25.029Z,24.42
2019-04-19T16:02:12.098Z,24.45
2019-04-19T16:05:19.946Z,24.76
2019-04-19T16:08:08.220Z,24.67
2019-04-19T16:11:16.444Z,24.22
2019-04-19T16:14:04.165Z,24.14
2019-04-19T16:16:33.236Z,24.01
2019-04-19T16:19:02.705Z,24.07
2019-04-19T16:21:55.653Z,24.14
2019-04-19T16:24:21.014Z,24.21
2019-04-19T16:26:51.021Z,24.47
2019-04-19T16:29:29.411Z,24.42
2019-04-19T16:32:09.867Z,24.50
2019-04-19T16:34:57.524Z,24.46
2019-04-19T16:37:45.170Z,24.49
2019-04-19T16:40:34.245Z,24.38
2019-04-19T16:43:03.542Z,24.25
2019-04-19T16:46:03.242Z,24.32
2019-04-19T16:48:42.424Z,24.37
2019-04-19T16:51:12.572Z,24.06
2019-04-19T16:53:42.316Z,23.98
2019-04-19T16:56:12.221Z,24.08
2019-04-19T16:59:01.410Z,24.14
2019-04-19T17:04:36.919Z,23.92
2019-04-19T17:07:24.813Z,23.83
2019-04-19T17:12:51.603Z,23.93
2019-04-19T17:15:39.601Z,23.82
2019-04-19T17:18:27.124Z,23.88
2019-04-19T17:21:15.612Z,23.70
2019-04-19T17:24:05.024Z,23.65
2019-04-19T17:26:35.182Z,23.84
2019-04-19T17:29:24.695Z,23.89
2019-04-19T17:32:14.177Z,23.81
2019-04-19T17:34:44.325Z,23.87
2019-04-19T17:37:14.125Z,23.69
2019-04-19T17:39:44.560Z,23.44
2019-04-19T17:42:14.633Z,23.47
2019-04-19T17:47:39.678Z,23.15
2019-04-19T17:50:48.088Z,22.96
2019-04-19T17:53:40.800Z,22.87
2019-04-19T17:56:06.160Z,22.78
2019-04-19T17:58:54.131Z,22.55
2019-04-19T18:01:24.293Z,22.46
2019-04-19T18:06:29.963Z,22.38
2019-04-19T18:09:19.972Z,22.53
2019-04-19T18:11:49.279Z,22.47
2019-04-19T18:14:18.250Z,22.39
2019-04-19T18:16:46.657Z,22.32
2019-04-19T18:19:22.246Z,22.30
2019-04-19T18:21:45.938Z,22.07
2019-04-19T18:24:39.776Z,22.03
2019-04-19T18:27:09.286Z,21.89
2019-04-19T18:29:35.751Z,21.90
2019-04-19T18:34:54.187Z,21.81
2019-04-19T18:37:44.403Z,21.57
2019-04-19T18:40:31.431Z,21.27
2019-04-19T18:43:27.818Z,21.20
2019-04-19T18:45:50.010Z,21.09
2019-04-19T18:48:19.831Z,21.08
2019-04-19T18:50:52.219Z,21.02
2019-04-19T18:53:47.092Z,20.84
2019-04-19T18:56:16.222Z,20.77
2019-04-19T18:58:40.621Z,20.53
2019-04-19T19:01:33.929Z,20.39
2019-04-19T19:04:24.310Z,20.22
2019-04-19T19:06:48.854Z,20.09
2019-04-19T19:12:14.942Z,19.83
2019-04-19T19:15:03.015Z,19.81
2019-04-19T19:17:54.854Z,19.75
2019-04-19T19:21:03.169Z,19.85
2019-04-19T19:26:53.437Z,19.59
2019-04-19T19:29:28.164Z,19.53
2019-04-19T19:32:36.554Z,19.40
2019-04-19T19:35:52.245Z,19.29
2019-04-19T19:38:38.167Z,19.05
2019-04-19T19:42:31.411Z,18.92
2019-04-19T19:44:31.219Z,18.90
2019-04-19T19:47:33.459Z,18.78
2019-04-19T19:49:52.638Z,18.80
2019-04-19T19:52:26.133Z,18.71
2019-04-19T19:55:11.567Z,18.68
2019-04-19T19:57:39.617Z,18.64
2019-04-19T20:00:20.716Z,18.60
2019-04-19T20:03:13.531Z,18.49
2019-04-19T20:05:36.464Z,18.42
2019-04-19T20:08:03.797Z,18.30
2019-04-19T20:10:39.890Z,18.19
2019-04-19T20:13:08.779Z,18.05
2019-04-19T20:15:52.828Z,18.26
2019-04-19T20:18:30.948Z,18.30
2019-04-19T20:20:54.397Z,18.19
2019-04-19T20:23:29.135Z,18.14
2019-04-19T20:26:04.282Z,18.00
2019-04-19T20:28:43.112Z,18.10
2019-04-19T20:31:15.915Z,17.88
2019-04-19T20:34:02.636Z,17.43
2019-04-19T20:36:37.425Z,17.13
2019-04-19T20:39:03.100Z,16.95
2019-04-19T20:41:54.427Z,16.81
2019-04-19T20:44:40.692Z,16.78
2019-04-19T20:46:52.464Z,16.69
2019-04-19T20:49:21.586Z,16.59
2019-04-19T20:52:41.558Z,16.61
2019-04-19T20:55:22.948Z,16.51
2019-04-19T21:00:44.092Z,16.46
2019-04-19T21:03:34.972Z,16.44
2019-04-19T21:06:28.687Z,16.35
2019-04-19T21:08:52.874Z,16.25
2019-04-19T21:11:45.831Z,16.20
2019-04-19T21:14:11.282Z,16.22
2019-04-19T21:16:48.120Z,16.24
2019-04-19T21:19:51.753Z,16.12
2019-04-19T21:22:40.478Z,16.11
2019-04-19T21:25:19.053Z,16.12
2019-04-19T21:27:47.090Z,16.08
2019-04-19T21:30:29.257Z,15.91
2019-04-19T21:33:20.139Z,15.81
2019-04-19T21:36:04.853Z,15.72
2019-04-19T21:38:30.245Z,15.66
2019-04-19T21:41:25.545Z,15.63
2019-04-19T21:43:50.000Z,15.63
2019-04-19T21:46:39.829Z,15.57
2019-04-19T21:49:12.906Z,15.52
2019-04-19T21:51:40.684Z,15.52
2019-04-19T21:54:10.408Z,15.58
2019-04-19T21:56:44.443Z,15.55
2019-04-19T21:59:09.466Z,15.52
2019-04-19T22:02:29.873Z,15.52
2019-04-19T22:04:53.504Z,15.46
2019-04-19T22:07:43.855Z,15.33
2019-04-19T22:10:33.473Z,15.37
2019-04-19T22:13:16.695Z,15.37
2019-04-19T22:16:05.848Z,15.31
2019-04-19T22:18:56.238Z,15.27
2019-04-19T22:21:30.204Z,15.33
2019-04-19T22:23:56.402Z,15.31
2019-04-19T22:26:48.214Z,15.22
2019-04-19T22:29:15.472Z,15.25
2019-04-19T22:32:09.794Z,15.12
2019-04-19T22:34:34.683Z,15.19
2019-04-19T22:37:29.968Z,15.11
2019-04-19T22:40:12.747Z,14.99
2019-04-19T22:43:04.848Z,14.99
2019-04-19T22:45:30.696Z,15.08
2019-04-19T22:48:20.191Z,15.01
2019-04-19T22:53:54.974Z,15.00
2019-04-19T22:56:32.973Z,14.97
2019-04-19T22:58:53.678Z,14.80
2019-04-19T23:01:44.407Z,14.85
2019-04-19T23:04:32.987Z,14.69
2019-04-19T23:07:05.431Z,14.58
2019-04-19T23:09:52.668Z,14.53
2019-04-19T23:20:45.390Z,14.55
2019-04-19T23:23:21.731Z,14.37
2019-04-19T23:26:17.101Z,14.35
2019-04-19T23:28:53.156Z,14.40
2019-04-19T23:34:12.282Z,14.15
2019-04-19T23:36:41.672Z,13.99
2019-04-19T23:39:13.988Z,13.89
2019-04-19T23:41:40.828Z,13.73
2019-04-19T23:44:29.101Z,13.62
2019-04-19T23:47:18.166Z,13.63
2019-04-19T23:50:06.266Z,13.65
2019-04-19T23:52:57.430Z,13.64
2019-04-19T23:58:35.027Z,13.53
